Time;durP1;ratioP1;P1;durP2;ratioP2;P2;SDS_P1;SDS_P2;PMS_P1;PMS_P2;Temp;Humidity;BMP_temperature;BMP_pressure;BME280_temperature;BME280_humidity;BME280_pressure;Samples;Min_cycle;Max_cycle;Signal;HPM_P1;HPM_P2
2021/09/28 00:01:30;;;;;;;9.13;2.87;;;15.30;72.10;;;;;;5004766;28;20194;-92
2021/09/28 00:03:56;;;;;;;11.52;3.42;;;15.20;72.00;;;;;;5006732;28;20298;-91
2021/09/28 00:06:22;;;;;;;11.20;2.80;;;15.00;72.30;;;;;;5010116;28;20217;-91
2021/09/28 00:08:47;;;;;;;2.87;2.63;;;15.00;72.60;;;;;;5021073;28;20196;-90
2021/09/28 00:11:13;;;;;;;11.57;3.17;;;15.10;72.50;;;;;;5023701;28;20181;-90
2021/09/28 00:13:39;;;;;;;7.67;3.30;;;15.20;72.40;;;;;;5022804;28;20206;-91
2021/09/28 00:16:06;;;;;;;12.02;2.83;;;15.20;72.10;;;;;;5024076;28;20182;-92
2021/09/28 00:18:32;;;;;;;10.32;2.92;;;15.20;72.10;;;;;;5025621;28;20182;-91
2021/09/28 00:20:58;;;;;;;17.38;3.17;;;15.00;72.00;;;;;;5024049;28;20193;-91
2021/09/28 00:23:24;;;;;;;13.68;3.05;;;15.00;72.20;;;;;;5026910;28;20197;-91
2021/09/28 00:25:51;;;;;;;11.53;3.60;;;15.10;72.30;;;;;;5029747;28;20284;-91
2021/09/28 00:28:17;;;;;;;5.57;2.70;;;15.10;72.20;;;;;;5027557;28;20165;-92
2021/09/28 00:30:46;;;;;;;7.43;2.58;;;15.20;71.90;;;;;;5027823;28;20188;-91
2021/09/28 00:33:12;;;;;;;4.10;2.15;;;15.20;71.70;;;;;;5027693;28;20228;-90
2021/09/28 00:35:38;;;;;;;6.68;2.22;;;15.30;71.70;;;;;;5028269;28;20205;-90
2021/09/28 00:38:04;;;;;;;11.47;2.40;;;15.10;71.80;;;;;;5029225;28;20185;-90
2021/09/28 00:40:31;;;;;;;8.52;2.75;;;15.10;72.00;;;;;;5026446;28;20209;-90
2021/09/28 00:42:57;;;;;;;11.63;2.83;;;15.10;71.90;;;;;;5028363;28;20198;-91
2021/09/28 00:45:24;;;;;;;8.90;2.60;;;15.10;72.00;;;;;;5028852;28;20265;-91
2021/09/28 00:47:50;;;;;;;7.80;2.25;;;15.10;71.90;;;;;;5026807;28;20186;-91
2021/09/28 00:50:16;;;;;;;5.22;2.10;;;15.20;71.50;;;;;;5028194;28;20634;-91
2021/09/28 00:52:41;;;;;;;4.77;2.70;;;15.20;71.50;;;;;;5027455;28;20252;-91
2021/09/28 00:55:08;;;;;;;10.10;3.00;;;15.20;71.30;;;;;;5024682;28;20424;-90
2021/09/28 00:57:34;;;;;;;10.73;2.30;;;15.10;71.40;;;;;;5029736;28;20226;-91
2021/09/28 01:00:01;;;;;;;6.78;2.30;;;14.90;71.40;;;;;;5031372;28;20248;-91
2021/09/28 01:02:27;;;;;;;9.65;2.50;;;14.80;71.90;;;;;;5031438;28;20212;-91
2021/09/28 01:04:53;;;;;;;5.07;2.47;;;14.80;72.20;;;;;;5028120;28;20202;-91
2021/09/28 01:07:18;;;;;;;11.23;2.70;;;14.90;72.30;;;;;;5027558;28;20217;-92
2021/09/28 01:09:44;;;;;;;14.23;2.20;;;14.70;72.30;;;;;;5046325;28;20270;-91
2021/09/28 01:12:11;;;;;;;19.03;2.27;;;14.80;72.20;;;;;;5026732;28;20174;-91
2021/09/28 01:14:38;;;;;;;5.10;2.53;;;14.70;72.40;;;;;;5028771;28;20193;-91
2021/09/28 01:17:10;;;;;;;12.13;3.60;;;14.60;72.80;;;;;;5025938;28;20736;-91
2021/09/28 01:19:36;;;;;;;10.25;3.15;;;14.50;73.10;;;;;;5026268;28;20220;-91
2021/09/28 01:22:10;;;;;;;6.10;2.53;;;14.60;73.20;;;;;;5026558;28;20182;-91
2021/09/28 01:24:37;;;;;;;7.05;2.72;;;14.50;73.20;;;;;;5025284;28;20205;-91
2021/09/28 01:27:04;;;;;;;10.70;2.60;;;14.50;73.50;;;;;;5026644;28;20178;-91
2021/09/28 01:29:30;;;;;;;11.85;2.92;;;14.50;73.50;;;;;;5022845;28;20264;-91
2021/09/28 01:31:56;;;;;;;8.45;3.10;;;14.60;73.30;;;;;;5026049;28;20182;-91
2021/09/28 01:34:22;;;;;;;7.68;2.83;;;14.50;73.20;;;;;;5044571;28;20213;-91
2021/09/28 01:36:49;;;;;;;8.40;3.45;;;14.50;73.20;;;;;;5026981;28;20196;-91
2021/09/28 01:39:17;;;;;;;7.40;2.55;;;14.60;73.20;;;;;;5026082;28;20174;-91
2021/09/28 01:41:43;;;;;;;8.20;2.30;;;14.60;73.00;;;;;;5025183;28;20181;-91
2021/09/28 01:44:15;;;;;;;5.53;2.25;;;14.60;72.90;;;;;;5045832;28;20214;-91
2021/09/28 01:46:44;;;;;;;7.07;1.90;;;14.60;72.90;;;;;;5027177;28;20181;-91
2021/09/28 01:49:12;;;;;;;7.25;2.33;;;14.50;73.10;;;;;;5025389;28;20235;-92
2021/09/28 01:51:41;;;;;;;7.60;3.83;;;14.40;73.40;;;;;;5027693;28;20178;-91
2021/09/28 01:54:08;;;;;;;6.50;2.00;;;14.40;73.40;;;;;;5025153;28;20202;-92
2021/09/28 01:56:35;;;;;;;7.60;2.90;;;14.40;73.50;;;;;;5011599;28;20186;-91
2021/09/28 01:59:02;;;;;;;3.10;2.13;;;14.40;73.50;;;;;;5009150;28;20558;-91
2021/09/28 02:01:28;;;;;;;9.10;1.88;;;14.40;73.50;;;;;;5006963;28;20185;-91
2021/09/28 02:03:54;;;;;;;5.63;2.42;;;14.60;73.40;;;;;;5025382;28;20198;-91
2021/09/28 02:06:22;;;;;;;3.80;2.17;;;14.60;73.10;;;;;;5004445;28;20634;-91
2021/09/28 02:08:48;;;;;;;5.50;2.20;;;14.60;73.40;;;;;;5021923;28;20178;-91
2021/09/28 02:11:15;;;;;;;6.82;2.63;;;14.50;73.00;;;;;;5006944;28;20179;-91
2021/09/28 02:13:41;;;;;;;9.75;2.10;;;14.50;73.00;;;;;;5006883;28;20615;-91
2021/09/28 02:16:07;;;;;;;4.40;2.60;;;14.40;73.10;;;;;;5007333;28;20186;-91
2021/09/28 02:18:33;;;;;;;8.13;2.45;;;14.40;73.10;;;;;;4992500;28;20178;-91
2021/09/28 02:20:59;;;;;;;10.27;2.42;;;14.40;73.10;;;;;;5004737;28;20242;-91
2021/09/28 02:23:25;;;;;;;9.23;2.57;;;14.50;73.30;;;;;;5008384;28;20550;-91
2021/09/28 02:25:54;;;;;;;8.40;2.70;;;14.50;73.10;;;;;;5006287;28;20512;-91
2021/09/28 02:28:20;;;;;;;4.72;3.10;;;14.50;73.00;;;;;;5006109;28;20577;-92
2021/09/28 02:30:46;;;;;;;5.57;2.90;;;14.60;72.90;;;;;;5005972;28;20178;-91
2021/09/28 02:33:11;;;;;;;7.80;3.22;;;14.60;72.80;;;;;;5005171;28;20190;-92
2021/09/28 02:35:37;;;;;;;14.97;2.87;;;14.50;72.80;;;;;;5006825;28;20194;-91
2021/09/28 02:38:03;;;;;;;9.37;3.57;;;14.40;72.90;;;;;;5005158;28;20268;-91
2021/09/28 02:40:30;;;;;;;4.43;3.25;;;14.40;73.10;;;;;;5000792;28;20268;-91
2021/09/28 02:42:55;;;;;;;7.60;4.05;;;14.50;73.10;;;;;;5027440;28;20229;-90
2021/09/28 02:45:22;;;;;;;8.50;2.90;;;14.50;73.10;;;;;;5026086;28;20198;-91
2021/09/28 02:47:49;;;;;;;3.97;2.60;;;14.50;73.10;;;;;;5043999;28;20836;-92
2021/09/28 02:50:15;;;;;;;6.20;3.67;;;14.40;73.00;;;;;;5024153;28;20315;-91
2021/09/28 02:52:41;;;;;;;4.32;3.13;;;14.40;73.00;;;;;;5041043;28;20439;-91
2021/09/28 02:55:10;;;;;;;14.53;3.60;;;14.50;72.90;;;;;;5025452;28;20178;-92
2021/09/28 02:57:36;;;;;;;5.03;3.35;;;14.40;72.70;;;;;;5023611;28;20479;-91
2021/09/28 03:00:05;;;;;;;14.13;4.97;;;14.30;72.90;;;;;;5025107;28;20186;-91
2021/09/28 03:02:31;;;;;;;9.38;2.92;;;14.20;73.10;;;;;;5028548;28;20232;-90
2021/09/28 03:04:56;;;;;;;7.93;2.90;;;14.20;73.10;;;;;;5031532;28;20202;-91
2021/09/28 03:07:22;;;;;;;4.80;2.67;;;14.20;73.10;;;;;;5032130;28;20177;-91
2021/09/28 03:09:48;;;;;;;6.97;2.70;;;14.20;73.20;;;;;;5031705;28;20305;-91
2021/09/28 03:12:13;;;;;;;7.73;2.90;;;14.20;73.20;;;;;;5005625;28;20178;-91
2021/09/28 03:14:39;;;;;;;7.60;2.90;;;14.40;73.00;;;;;;5006046;28;20592;-92
2021/09/28 03:17:05;;;;;;;7.00;3.47;;;14.40;72.80;;;;;;5005201;28;20261;-92
2021/09/28 03:19:31;;;;;;;6.00;2.40;;;14.20;72.80;;;;;;4988048;28;20179;-92
2021/09/28 03:21:57;;;;;;;8.45;3.08;;;14.40;72.90;;;;;;5005675;28;20204;-91
2021/09/28 03:24:23;;;;;;;11.73;3.07;;;14.40;72.60;;;;;;5003646;28;20278;-91
2021/09/28 03:26:49;;;;;;;8.07;2.50;;;14.40;72.60;;;;;;5006108;28;20174;-92
2021/09/28 03:29:15;;;;;;;4.15;2.15;;;14.20;72.70;;;;;;5001639;28;20547;-91
2021/09/28 03:31:40;;;;;;;6.23;1.97;;;14.50;72.50;;;;;;5002541;28;20210;-90
2021/09/28 03:34:07;;;;;;;5.60;1.93;;;14.40;72.20;;;;;;5025705;28;20199;-91
2021/09/28 03:36:33;;;;;;;4.63;2.05;;;14.40;72.20;;;;;;5014346;28;20197;-91
2021/09/28 03:38:59;;;;;;;3.93;1.80;;;14.40;72.20;;;;;;5024933;28;20182;-91
2021/09/28 03:41:25;;;;;;;5.73;2.07;;;14.40;72.30;;;;;;5024274;28;20277;-91
2021/09/28 03:43:51;;;;;;;2.90;2.03;;;14.40;72.40;;;;;;5023836;28;20213;-91
2021/09/28 03:46:16;;;;;;;15.27;2.10;;;14.40;72.30;;;;;;5040802;28;20214;-90
2021/09/28 03:48:42;;;;;;;3.40;1.63;;;14.40;72.30;;;;;;5026378;28;20409;-91
2021/09/28 03:51:08;;;;;;;17.37;2.30;;;14.30;72.40;;;;;;5048754;28;20408;-90
2021/09/28 03:53:34;;;;;;;6.15;1.60;;;14.20;72.40;;;;;;5031734;28;20579;-90
2021/09/28 03:56:00;;;;;;;2.90;1.77;;;14.20;72.70;;;;;;5028886;28;20186;-91
2021/09/28 03:58:26;;;;;;;2.40;1.63;;;14.30;72.70;;;;;;5028241;28;20178;-90
2021/09/28 04:00:53;;;;;;;6.07;1.80;;;14.30;72.70;;;;;;5026654;28;20916;-91
2021/09/28 04:03:19;;;;;;;5.68;2.33;;;14.20;72.40;;;;;;5047841;28;20436;-90
2021/09/28 04:05:44;;;;;;;4.67;1.50;;;14.20;72.40;;;;;;5029829;28;20306;-91
2021/09/28 04:08:10;;;;;;;3.97;1.70;;;14.10;72.70;;;;;;5013870;28;20192;-90
2021/09/28 04:10:37;;;;;;;5.37;1.60;;;13.90;73.00;;;;;;5027151;28;20250;-91
2021/09/28 04:13:07;;;;;;;4.22;2.08;;;13.90;73.20;;;;;;5026894;28;20273;-91
2021/09/28 04:15:40;;;;;;;5.75;1.42;;;13.90;73.40;;;;;;5027847;28;20189;-91
2021/09/28 04:18:11;;;;;;;2.85;1.83;;;14.00;73.20;;;;;;5026329;28;20253;-91
2021/09/28 04:20:39;;;;;;;6.03;1.50;;;14.10;73.20;;;;;;5025459;28;20319;-91
2021/09/28 04:23:05;;;;;;;4.75;2.38;;;14.10;73.00;;;;;;5024578;28;20580;-91
2021/09/28 04:25:32;;;;;;;7.00;2.38;;;14.00;72.90;;;;;;5026029;28;20729;-91
2021/09/28 04:27:58;;;;;;;10.60;2.13;;;14.00;73.20;;;;;;5026917;28;20653;-90
2021/09/28 04:30:24;;;;;;;10.15;1.73;;;14.00;73.10;;;;;;5042421;28;20186;-90
2021/09/28 04:32:50;;;;;;;9.55;2.53;;;13.90;73.10;;;;;;5041463;28;20189;-91
2021/09/28 04:35:17;;;;;;;7.90;1.60;;;13.90;73.40;;;;;;5024951;28;20269;-91
2021/09/28 04:37:42;;;;;;;9.68;2.05;;;13.90;73.60;;;;;;5025577;28;20174;-91
2021/09/28 04:40:09;;;;;;;5.87;2.70;;;14.10;73.40;;;;;;5026959;28;20178;-91
2021/09/28 04:42:35;;;;;;;5.50;1.88;;;14.10;73.20;;;;;;5027243;28;20515;-91
2021/09/28 04:45:01;;;;;;;11.23;2.23;;;13.90;73.20;;;;;;5025738;28;20232;-91
2021/09/28 04:47:27;;;;;;;8.97;2.13;;;14.00;73.40;;;;;;5026740;28;20197;-91
2021/09/28 04:49:52;;;;;;;9.00;2.53;;;14.10;73.50;;;;;;5044597;28;20520;-90
2021/09/28 04:52:18;;;;;;;4.47;2.23;;;14.00;73.20;;;;;;5024107;28;20182;-91
2021/09/28 04:54:44;;;;;;;10.37;2.03;;;13.90;73.30;;;;;;5023441;28;20182;-90
2021/09/28 04:57:09;;;;;;;6.30;2.20;;;13.70;73.40;;;;;;5027440;28;20236;-92
2021/09/28 04:59:35;;;;;;;3.03;1.53;;;13.70;74.00;;;;;;5026716;28;20220;-92
2021/09/28 05:02:01;;;;;;;6.03;1.83;;;13.60;74.00;;;;;;5027430;28;20300;-92
2021/09/28 05:04:27;;;;;;;2.67;1.57;;;13.60;74.20;;;;;;5030161;28;20206;-93
2021/09/28 05:06:55;;;;;;;12.67;2.30;;;13.40;74.70;;;;;;5035894;28;20486;-92
2021/09/28 05:09:21;;;;;;;8.07;2.70;;;13.50;75.10;;;;;;5041587;28;20428;-92
2021/09/28 05:11:48;;;;;;;10.75;2.40;;;13.60;74.70;;;;;;5041990;28;20174;-92
2021/09/28 05:14:13;;;;;;;13.18;2.50;;;13.70;74.60;;;;;;5041941;28;20208;-92
2021/09/28 05:16:39;;;;;;;9.93;2.53;;;13.60;74.40;;;;;;5059718;28;20170;-92
2021/09/28 05:19:05;;;;;;;4.77;2.73;;;13.70;74.40;;;;;;5041717;28;20170;-93
2021/09/28 05:21:32;;;;;;;7.40;2.00;;;13.70;74.50;;;;;;5033852;28;20277;-93
2021/09/28 05:24:01;;;;;;;4.10;2.13;;;13.70;74.40;;;;;;5031315;28;20205;-93
2021/09/28 05:26:27;;;;;;;5.03;2.40;;;13.70;74.40;;;;;;5031825;28;20189;-94
2021/09/28 05:28:53;;;;;;;5.70;1.80;;;13.70;74.60;;;;;;5031446;28;20180;-92
2021/09/28 05:31:18;;;;;;;7.23;1.77;;;13.70;74.50;;;;;;5030159;28;20189;-92
2021/09/28 05:33:44;;;;;;;12.03;2.17;;;13.70;74.50;;;;;;5044172;28;20464;-92
2021/09/28 05:36:10;;;;;;;7.57;2.50;;;13.80;74.50;;;;;;5037595;28;20272;-92
2021/09/28 05:38:36;;;;;;;9.10;2.03;;;13.80;74.50;;;;;;5019860;28;20504;-94
2021/09/28 05:41:06;;;;;;;7.80;2.77;;;13.80;74.40;;;;;;5029959;28;20499;-93
2021/09/28 05:43:33;;;;;;;4.55;1.95;;;13.80;74.30;;;;;;5029910;28;20202;-93
2021/09/28 05:45:59;;;;;;;4.30;2.10;;;13.80;74.20;;;;;;5030819;28;20209;-94
2021/09/28 05:48:25;;;;;;;7.07;2.10;;;13.80;74.00;;;;;;5048098;28;20261;-94
2021/09/28 05:50:51;;;;;;;20.10;3.27;;;13.90;73.70;;;;;;5031055;28;20193;-93
2021/09/28 05:53:17;;;;;;;8.55;2.20;;;14.00;73.00;;;;;;5030998;28;20951;-93
2021/09/28 05:55:43;;;;;;;8.35;2.17;;;13.90;72.80;;;;;;5032220;28;20190;-95
2021/09/28 05:58:12;;;;;;;10.25;2.70;;;14.00;72.90;;;;;;5033417;28;20185;-94
2021/09/28 06:00:39;;;;;;;8.40;3.08;;;13.90;73.00;;;;;;5033793;28;20253;-94
2021/09/28 06:03:05;;;;;;;7.93;2.72;;;14.00;73.00;;;;;;5033656;28;20296;-95
2021/09/28 06:05:54;;;;;;;7.25;2.30;;;14.00;72.80;;;;;;5033727;28;20202;-94
2021/09/28 06:08:20;;;;;;;7.38;2.45;;;14.00;73.00;;;;;;5027623;28;20202;-94
2021/09/28 06:10:46;;;;;;;7.33;2.07;;;14.10;72.80;;;;;;5014921;28;20185;-95
2021/09/28 06:13:12;;;;;;;7.17;2.47;;;14.10;72.70;;;;;;5004118;28;20214;-94
2021/09/28 06:15:38;;;;;;;8.83;2.40;;;14.20;72.60;;;;;;5016713;28;20432;-94
2021/09/28 06:18:04;;;;;;;13.90;3.60;;;14.20;72.40;;;;;;4996354;28;20217;-93
2021/09/28 06:20:30;;;;;;;8.07;2.43;;;14.10;72.60;;;;;;5013039;28;20198;-94
2021/09/28 06:22:56;;;;;;;10.20;2.33;;;14.20;72.80;;;;;;5012311;28;20202;-94
2021/09/28 06:25:22;;;;;;;6.17;2.80;;;14.30;72.60;;;;;;5012666;28;20234;-93
2021/09/28 06:27:48;;;;;;;10.33;3.27;;;14.40;72.00;;;;;;5013796;28;20425;-93
2021/09/28 06:30:14;;;;;;;5.43;2.73;;;14.30;72.00;;;;;;5011698;28;20204;-93
2021/09/28 06:32:43;;;;;;;10.82;3.00;;;14.40;71.90;;;;;;5010730;28;20210;-93
2021/09/28 06:35:09;;;;;;;5.88;2.85;;;14.50;71.70;;;;;;5011621;28;20202;-93
2021/09/28 06:37:35;;;;;;;17.42;3.20;;;14.50;71.20;;;;;;5013503;28;20190;-93
2021/09/28 06:40:01;;;;;;;4.60;2.50;;;14.50;71.10;;;;;;5013382;28;20186;-93
2021/09/28 06:42:26;;;;;;;11.60;2.80;;;14.50;71.10;;;;;;5013995;28;20186;-94
2021/09/28 06:44:54;;;;;;;12.10;3.00;;;14.40;71.20;;;;;;5011817;28;20202;-93
2021/09/28 06:47:20;;;;;;;8.30;2.30;;;14.40;71.40;;;;;;5012498;28;20242;-93
2021/09/28 06:49:46;;;;;;;8.60;3.30;;;14.30;71.60;;;;;;5012459;28;20218;-93
2021/09/28 06:52:12;;;;;;;11.60;3.40;;;14.10;72.20;;;;;;5013923;28;20182;-93
2021/09/28 06:54:39;;;;;;;8.77;3.10;;;14.10;72.50;;;;;;5013516;28;20182;-94
2021/09/28 06:57:05;;;;;;;7.90;4.13;;;14.10;72.70;;;;;;5012305;28;20778;-93
2021/09/28 06:59:31;;;;;;;9.68;3.28;;;14.00;72.80;;;;;;5015514;28;20274;-93
2021/09/28 07:01:57;;;;;;;7.23;3.03;;;14.20;73.00;;;;;;5013000;28;20186;-93
2021/09/28 07:04:22;;;;;;;10.87;2.90;;;14.30;72.80;;;;;;5014205;28;20228;-93
2021/09/28 07:06:48;;;;;;;7.97;4.37;;;14.30;72.40;;;;;;5016453;28;20182;-94
2021/09/28 07:09:14;;;;;;;6.97;3.53;;;14.40;72.40;;;;;;5033275;28;20185;-93
2021/09/28 07:11:40;;;;;;;13.17;4.30;;;14.50;72.10;;;;;;5040870;28;20189;-94
2021/09/28 07:14:06;;;;;;;10.73;3.50;;;14.40;71.80;;;;;;5040868;28;20201;-94
2021/09/28 07:16:31;;;;;;;8.03;4.17;;;14.40;72.00;;;;;;5040939;28;20425;-93
2021/09/28 07:18:57;;;;;;;10.03;3.90;;;14.50;72.20;;;;;;5040310;28;20504;-95
2021/09/28 07:21:23;;;;;;;7.73;2.93;;;14.60;72.10;;;;;;5040773;28;20249;-93
2021/09/28 07:23:48;;;;;;;9.37;3.57;;;14.60;71.60;;;;;;5040538;28;20257;-93
2021/09/28 07:26:14;;;;;;;11.70;3.40;;;14.80;71.50;;;;;;5039879;28;20261;-93
2021/09/28 07:28:40;;;;;;;9.67;4.17;;;14.70;71.20;;;;;;5032691;28;20190;-93
2021/09/28 07:31:07;;;;;;;11.13;4.10;;;14.60;71.30;;;;;;5020293;28;20166;-93
2021/09/28 07:33:34;;;;;;;10.98;3.88;;;14.50;71.80;;;;;;5017197;28;20456;-94
2021/09/28 07:36:05;;;;;;;10.73;4.28;;;14.60;72.00;;;;;;5012729;28;20269;-93
2021/09/28 07:38:31;;;;;;;11.13;3.95;;;14.60;72.00;;;;;;4996289;28;20193;-94
2021/09/28 07:40:57;;;;;;;10.95;3.60;;;14.80;71.80;;;;;;5010275;28;20234;-93
2021/09/28 07:43:23;;;;;;;14.70;4.47;;;15.00;71.40;;;;;;5011269;28;20209;-93
2021/09/28 07:45:48;;;;;;;11.40;3.67;;;14.80;71.10;;;;;;5012262;28;20208;-93
2021/09/28 07:48:16;;;;;;;11.57;3.80;;;15.00;71.10;;;;;;5012855;28;20476;-93
2021/09/28 07:50:42;;;;;;;14.43;3.83;;;15.10;71.10;;;;;;5032071;28;20177;-94
2021/09/28 07:53:08;;;;;;;5.72;3.50;;;15.20;70.90;;;;;;5031801;28;20202;-94
2021/09/28 07:55:39;;;;;;;18.00;3.75;;;15.40;70.60;;;;;;5049474;28;20185;-93
2021/09/28 07:58:05;;;;;;;17.60;5.10;;;15.30;70.10;;;;;;5030870;28;20177;-94
2021/09/28 08:00:31;;;;;;;9.80;4.57;;;15.10;70.10;;;;;;5030976;28;20213;-94
2021/09/28 08:02:57;;;;;;;6.85;3.20;;;15.10;70.60;;;;;;5031125;28;20467;-94
2021/09/28 08:05:23;;;;;;;8.05;4.57;;;15.20;70.70;;;;;;5030864;28;20209;-94
2021/09/28 08:07:49;;;;;;;12.23;3.77;;;15.40;70.40;;;;;;5031548;28;20174;-94
2021/09/28 08:10:15;;;;;;;11.03;3.70;;;15.40;70.30;;;;;;5031778;28;20174;-94
2021/09/28 08:12:42;;;;;;;7.35;3.55;;;15.70;70.30;;;;;;5030462;28;20460;-94
2021/09/28 08:15:09;;;;;;;9.93;3.58;;;15.40;69.60;;;;;;5034608;28;20200;-94
2021/09/28 08:17:35;;;;;;;8.38;3.15;;;15.40;70.10;;;;;;5035702;28;20681;-94
2021/09/28 08:20:01;;;;;;;8.10;3.40;;;15.30;70.20;;;;;;5052605;28;20220;-94
2021/09/28 08:22:27;;;;;;;13.20;3.67;;;15.50;70.50;;;;;;5035499;28;20416;-93
2021/09/28 08:24:55;;;;;;;15.40;4.10;;;15.90;70.00;;;;;;5034986;28;20537;-94
2021/09/28 08:30:10;;;;;;;10.80;4.22;;;15.90;69.10;;;;;;5051319;28;20168;-94
2021/09/28 08:32:35;;;;;;;7.47;3.13;;;15.90;68.90;;;;;;5032917;28;20256;-94
2021/09/28 08:35:03;;;;;;;4.20;3.07;;;15.90;69.00;;;;;;5030899;28;20197;-94
2021/09/28 08:37:29;;;;;;;14.27;3.63;;;16.30;68.70;;;;;;5029819;28;20209;-94
2021/09/28 08:39:56;;;;;;;9.80;2.73;;;16.20;67.80;;;;;;5031595;28;20186;-95
2021/09/28 08:42:23;;;;;;;15.25;3.97;;;16.30;68.10;;;;;;5051090;28;20190;-94
2021/09/28 08:44:49;;;;;;;6.75;3.05;;;16.60;67.90;;;;;;5016089;28;20225;-94
2021/09/28 08:47:15;;;;;;;6.47;2.67;;;16.70;67.50;;;;;;5032152;28;20197;-95
2021/09/28 08:49:41;;;;;;;13.13;3.28;;;16.50;66.70;;;;;;5032614;28;20277;-94
2021/09/28 08:52:10;;;;;;;12.73;3.40;;;16.70;66.90;;;;;;5031646;28;20192;-94
2021/09/28 08:54:39;;;;;;;11.23;2.88;;;16.60;66.30;;;;;;5030506;28;20455;-94
2021/09/28 08:57:05;;;;;;;4.55;2.55;;;16.60;66.40;;;;;;5015673;28;20201;-94
2021/09/28 08:59:48;;;;;;;12.67;3.87;;;16.80;66.50;;;;;;5032832;28;20190;-94
2021/09/28 09:02:14;;;;;;;8.88;3.03;;;17.10;66.50;;;;;;5033869;28;20447;-94
2021/09/28 09:04:42;;;;;;;7.67;3.50;;;17.10;65.70;;;;;;5033717;28;20210;-94
2021/09/28 09:07:25;;;;;;;15.70;3.25;;;17.00;65.50;;;;;;5035243;28;20428;-94
2021/09/28 09:09:52;;;;;;;11.25;3.00;;;16.90;65.60;;;;;;5035132;28;20174;-94
2021/09/28 09:12:34;;;;;;;15.43;3.90;;;16.80;65.20;;;;;;5034280;28;20183;-94
2021/09/28 09:15:20;;;;;;;9.68;1.98;;;17.10;65.40;;;;;;5035900;28;20190;-95
2021/09/28 09:17:48;;;;;;;8.52;2.97;;;17.10;65.10;;;;;;5052627;28;20220;-94
2021/09/28 09:20:30;;;;;;;15.15;5.47;;;17.30;65.10;;;;;;5036121;28;20186;-94
2021/09/28 09:23:18;;;;;;;5.43;3.67;;;17.50;65.00;;;;;;5053416;28;20194;-94
2021/09/28 09:25:45;;;;;;;12.13;3.15;;;17.60;64.20;;;;;;5035113;28;20283;-94
2021/09/28 09:28:30;;;;;;;11.77;3.22;;;17.70;64.10;;;;;;5033931;28;20182;-94
2021/09/28 09:31:05;;;;;;;7.90;2.78;;;17.40;63.40;;;;;;5032837;28;20158;-94
2021/09/28 09:33:31;;;;;;;7.78;3.22;;;17.50;63.90;;;;;;5034927;28;20251;-94
2021/09/28 09:35:58;;;;;;;13.10;3.50;;;17.70;63.80;;;;;;5017451;28;20219;-94
2021/09/28 09:38:24;;;;;;;10.50;2.75;;;17.90;63.80;;;;;;5033965;28;20192;-94
2021/09/28 09:40:51;;;;;;;20.15;3.30;;;18.00;63.70;;;;;;5035377;28;20185;-94
2021/09/28 09:43:27;;;;;;;12.02;2.65;;;18.10;63.20;;;;;;5019892;28;20206;-95
2021/09/28 09:46:13;;;;;;;4.15;2.00;;;17.70;62.60;;;;;;5054073;28;20177;-95
2021/09/28 09:48:41;;;;;;;7.30;2.08;;;18.10;62.90;;;;;;5033761;28;20165;-95
2021/09/28 09:51:10;;;;;;;9.93;2.50;;;18.20;62.10;;;;;;5033761;28;20174;-94
2021/09/28 09:53:54;;;;;;;18.30;2.63;;;18.40;61.80;;;;;;5039138;28;20212;-94
2021/09/28 09:56:22;;;;;;;7.43;2.65;;;18.30;61.50;;;;;;5041065;28;20215;-94
2021/09/28 09:58:48;;;;;;;23.10;4.28;;;18.40;61.70;;;;;;5041268;28;20181;-94
2021/09/28 10:01:14;;;;;;;11.82;2.90;;;18.30;60.80;;;;;;5035972;28;20204;-94
2021/09/28 10:03:41;;;;;;;18.37;4.10;;;18.40;60.50;;;;;;5030713;28;20391;-94
2021/09/28 10:06:07;;;;;;;6.00;2.90;;;18.20;59.90;;;;;;5029902;28;20503;-94
2021/09/28 10:08:38;;;;;;;13.98;2.97;;;18.00;60.20;;;;;;5046513;28;20182;-94
2021/09/28 10:11:04;;;;;;;5.75;2.38;;;18.10;59.80;;;;;;5018826;28;20288;-94
2021/09/28 10:13:52;;;;;;;9.10;2.60;;;18.20;59.10;;;;;;5007788;28;20225;-94
2021/09/28 10:16:31;;;;;;;10.32;2.50;;;18.20;58.80;;;;;;5009195;28;20197;-94
2021/09/28 10:18:57;;;;;;;7.28;2.17;;;18.30;58.80;;;;;;5009323;28;20182;-94
2021/09/28 10:21:43;;;;;;;7.43;2.70;;;18.60;58.40;;;;;;5024252;28;20213;-94
2021/09/28 10:24:18;;;;;;;11.05;3.20;;;18.80;57.30;;;;;;5011511;28;20663;-94
2021/09/28 10:27:08;;;;;;;9.75;2.30;;;18.70;56.40;;;;;;5014743;28;20186;-94
2021/09/28 10:29:37;;;;;;;8.45;2.45;;;19.00;56.50;;;;;;5005657;28;20191;-94
2021/09/28 10:32:43;;;;;;;8.48;2.50;;;19.20;56.10;;;;;;5032504;28;20262;-95
2021/09/28 10:35:11;;;;;;;10.57;2.72;;;19.30;56.50;;;;;;5030475;28;20214;-94
2021/09/28 10:37:55;;;;;;;9.27;2.47;;;19.40;55.10;;;;;;5017897;28;20177;-94
2021/09/28 10:40:21;;;;;;;6.25;2.50;;;19.00;53.00;;;;;;5019131;28;20230;-94
2021/09/28 10:42:56;;;;;;;5.67;2.27;;;19.10;54.20;;;;;;5018269;28;20198;-94
2021/09/28 10:45:29;;;;;;;12.57;2.70;;;18.80;53.70;;;;;;5030421;28;20209;-94
2021/09/28 10:47:54;;;;;;;7.63;2.35;;;18.60;54.20;;;;;;5012731;28;20167;-94
2021/09/28 10:50:23;;;;;;;5.43;1.90;;;18.90;54.70;;;;;;5012206;28;20200;-94
2021/09/28 10:52:51;;;;;;;8.40;2.65;;;19.20;54.50;;;;;;5015008;28;20229;-94
2021/09/28 10:55:17;;;;;;;12.60;3.25;;;19.50;54.90;;;;;;5016990;28;20178;-94
2021/09/28 10:58:03;;;;;;;13.02;2.58;;;19.60;54.30;;;;;;5013031;28;20285;-94
2021/09/28 11:00:52;;;;;;;6.97;2.50;;;19.80;53.30;;;;;;5010596;28;20177;-94
2021/09/28 11:03:37;;;;;;;5.75;2.33;;;19.80;53.20;;;;;;5012056;28;20297;-94
2021/09/28 11:06:05;;;;;;;7.18;2.08;;;19.60;52.60;;;;;;5032062;28;20274;-94
2021/09/28 11:08:35;;;;;;;6.85;2.15;;;19.70;53.20;;;;;;5012429;28;20559;-95
2021/09/28 11:11:03;;;;;;;6.70;2.85;;;19.70;52.70;;;;;;5011491;28;20182;-94
2021/09/28 11:13:33;;;;;;;4.85;2.80;;;19.80;52.60;;;;;;5010223;28;20195;-95
2021/09/28 11:16:05;;;;;;;4.18;1.92;;;19.80;52.10;;;;;;5009737;28;20206;-94
2021/09/28 11:18:31;;;;;;;12.20;2.30;;;20.00;52.00;;;;;;5026152;28;20285;-94
2021/09/28 11:21:11;;;;;;;7.68;2.00;;;19.70;51.70;;;;;;5008549;28;20269;-95
2021/09/28 11:23:38;;;;;;;7.22;2.25;;;20.00;52.30;;;;;;5010939;28;20198;-94
2021/09/28 11:26:05;;;;;;;11.38;2.33;;;20.30;52.50;;;;;;5010702;28;20241;-94
2021/09/28 11:28:31;;;;;;;11.27;2.00;;;20.30;50.80;;;;;;5009602;28;20194;-94
2021/09/28 11:31:03;;;;;;;7.50;2.00;;;20.20;50.80;;;;;;5028606;28;20202;-94
2021/09/28 11:33:37;;;;;;;8.73;2.17;;;20.30;50.40;;;;;;5012686;28;20194;-94
2021/09/28 11:36:04;;;;;;;6.32;2.45;;;20.40;50.00;;;;;;5013369;28;20212;-94
2021/09/28 11:38:35;;;;;;;5.45;1.83;;;20.60;50.60;;;;;;5012367;28;20238;-94
2021/09/28 11:41:13;;;;;;;8.25;2.15;;;20.80;49.50;;;;;;5011655;28;20270;-94
2021/09/28 11:43:48;;;;;;;3.05;1.83;;;20.80;49.10;;;;;;5012705;28;20203;-94
2021/09/28 11:46:16;;;;;;;9.35;3.00;;;20.70;48.90;;;;;;5013694;28;20201;-93
2021/09/28 11:48:47;;;;;;;6.50;1.85;;;20.70;48.30;;;;;;5010470;28;20179;-93
2021/09/28 11:51:15;;;;;;;7.40;2.20;;;20.00;48.50;;;;;;5011365;28;20197;-94
2021/09/28 11:53:46;;;;;;;10.18;1.65;;;19.90;49.50;;;;;;5007566;28;20251;-94
2021/09/28 11:56:18;;;;;;;6.07;2.08;;;19.80;50.00;;;;;;5005723;28;20205;-94
2021/09/28 11:58:45;;;;;;;3.08;1.65;;;19.70;50.00;;;;;;5015892;28;20181;-94
2021/09/28 12:01:12;;;;;;;5.32;1.50;;;19.70;50.20;;;;;;5027048;28;20525;-95
2021/09/28 12:04:20;;;;;;;12.23;2.50;;;20.10;50.00;;;;;;5010623;28;20206;-94
2021/09/28 12:07:00;;;;;;;3.15;1.83;;;19.90;49.40;;;;;;5027154;28;20257;-94
2021/09/28 12:09:53;;;;;;;5.13;1.67;;;20.10;49.80;;;;;;5027531;28;20229;-94
2021/09/28 12:12:22;;;;;;;8.35;1.30;;;20.20;49.60;;;;;;5015807;28;20182;-94
2021/09/28 12:14:50;;;;;;;5.22;1.50;;;20.00;48.90;;;;;;5030569;28;20177;-94
2021/09/28 12:17:18;;;;;;;7.47;2.65;;;20.00;49.20;;;;;;5032148;28;20657;-94
2021/09/28 12:19:52;;;;;;;9.45;1.70;;;19.90;49.40;;;;;;5027153;28;20193;-94
2021/09/28 12:22:52;;;;;;;3.85;1.27;;;20.20;49.10;;;;;;5011993;28;20192;-94
2021/09/28 12:25:26;;;;;;;8.93;2.22;;;19.90;48.60;;;;;;5012577;28;20627;-94
2021/09/28 12:28:07;;;;;;;5.45;1.55;;;20.00;48.80;;;;;;5013333;28;20169;-94
2021/09/28 12:30:36;;;;;;;3.75;1.48;;;20.00;48.30;;;;;;5010868;28;20178;-94
2021/09/28 12:33:05;;;;;;;11.73;1.90;;;20.00;48.30;;;;;;5011328;28;20277;-94
2021/09/28 12:35:33;;;;;;;2.97;1.30;;;20.40;48.60;;;;;;4995025;28;20202;-94
2021/09/28 12:38:01;;;;;;;4.80;1.75;;;20.40;47.50;;;;;;5011092;28;20238;-94
2021/09/28 12:40:31;;;;;;;4.78;1.98;;;20.60;46.90;;;;;;5028356;28;20192;-95
2021/09/28 12:43:06;;;;;;;4.82;1.65;;;20.70;46.80;;;;;;5033315;28;20205;-94
2021/09/28 12:46:00;;;;;;;4.93;1.83;;;20.80;45.60;;;;;;5034020;28;20204;-95
2021/09/28 12:48:40;;;;;;;5.72;1.95;;;21.10;44.90;;;;;;5033074;28;20507;-95
2021/09/28 12:51:08;;;;;;;3.43;1.20;;;21.40;44.50;;;;;;5033015;28;20228;-95
2021/09/28 12:53:35;;;;;;;3.13;1.20;;;21.40;43.90;;;;;;5035432;28;20443;-95